Time;durP1;ratioP1;P1;durP2;ratioP2;P2;SDS_P1;SDS_P2;PMS_P1;PMS_P2;Temp;Humidity;BMP_temperature;BMP_pressure;BME280_temperature;BME280_humidity;BME280_pressure;Samples;Min_cycle;Max_cycle;Signal;HPM_P1;HPM_P2
2021/12/23 00:00:56;;;;;;;13.43;9.07;;;6.00;99.90;;;;;;5024848;28;20044;-74
2021/12/23 00:03:22;;;;;;;11.02;8.35;;;6.00;99.90;;;;;;5026650;28;20514;-74
2021/12/23 00:05:48;;;;;;;13.40;9.20;;;6.00;99.90;;;;;;5027713;28;20082;-74
2021/12/23 00:08:13;;;;;;;16.75;9.75;;;6.00;99.90;;;;;;5028165;28;20033;-74
2021/12/23 00:10:40;;;;;;;14.90;9.07;;;6.00;99.90;;;;;;5027526;28;20060;-75
2021/12/23 00:13:06;;;;;;;13.35;8.90;;;6.00;99.90;;;;;;5022151;28;20444;-74
2021/12/23 00:15:39;;;;;;;14.82;8.70;;;6.10;99.90;;;;;;5028445;28;20046;-74
2021/12/23 00:23:34;;;;;;;13.40;9.35;;;6.10;99.90;;;;;;5029886;28;20040;-74
2021/12/23 00:26:02;;;;;;;15.88;10.63;;;6.10;99.90;;;;;;5026099;28;20021;-74
2021/12/23 00:28:29;;;;;;;14.57;9.65;;;6.20;99.90;;;;;;5025974;28;20371;-74
2021/12/23 00:30:55;;;;;;;14.13;9.25;;;6.20;99.90;;;;;;5026629;28;20096;-75
2021/12/23 00:33:22;;;;;;;11.45;8.40;;;6.10;99.90;;;;;;5028817;28;20476;-74
2021/12/23 00:35:48;;;;;;;15.85;9.73;;;6.10;99.90;;;;;;5026107;28;20456;-75
2021/12/23 00:38:21;;;;;;;16.70;10.10;;;6.10;99.90;;;;;;5028119;28;20025;-74
2021/12/23 00:40:46;;;;;;;;;;;6.10;99.90;;;;;;5028717;28;20045;-74
2021/12/23 00:43:12;;;;;;;14.30;9.70;;;6.10;99.90;;;;;;5023462;28;20367;-74
2021/12/23 00:45:38;;;;;;;13.23;8.00;;;6.10;99.90;;;;;;5029184;28;20022;-74
2021/12/23 00:48:04;;;;;;;13.43;9.23;;;6.10;99.90;;;;;;5025618;28;20030;-74
2021/12/23 00:50:30;;;;;;;15.43;9.07;;;6.10;99.90;;;;;;5022202;28;20029;-74
2021/12/23 00:52:58;;;;;;;13.48;9.13;;;6.10;99.90;;;;;;5026891;28;20124;-75
2021/12/23 00:55:24;;;;;;;11.20;9.52;;;6.10;99.90;;;;;;5030248;28;20036;-74
2021/12/23 00:57:50;;;;;;;13.70;9.98;;;6.10;99.90;;;;;;5025852;28;20021;-75
2021/12/23 01:00:19;;;;;;;13.65;9.60;;;6.10;99.90;;;;;;5029315;28;20100;-75
2021/12/23 01:02:45;;;;;;;14.77;9.65;;;6.10;99.90;;;;;;5019354;28;20018;-74
2021/12/23 01:05:17;;;;;;;14.30;10.77;;;6.10;99.90;;;;;;5022808;28;20025;-74
2021/12/23 01:07:43;;;;;;;14.13;10.43;;;6.10;99.90;;;;;;5020595;28;20120;-74
2021/12/23 01:10:10;;;;;;;14.18;10.20;;;6.10;99.90;;;;;;5029202;28;20105;-74
2021/12/23 01:12:39;;;;;;;13.55;9.15;;;6.10;99.90;;;;;;5024825;28;20032;-74
2021/12/23 01:15:27;;;;;;;12.15;8.93;;;6.00;99.90;;;;;;5025012;28;20077;-74
2021/12/23 01:18:00;;;;;;;12.57;9.20;;;6.10;99.90;;;;;;5021468;28;20044;-74
2021/12/23 01:20:31;;;;;;;12.25;9.23;;;6.10;99.90;;;;;;5020303;28;20554;-74
2021/12/23 01:23:05;;;;;;;13.07;8.90;;;6.10;99.90;;;;;;5025067;28;20396;-74
2021/12/23 01:25:33;;;;;;;14.38;9.77;;;6.00;99.90;;;;;;5028149;28;20053;-74
2021/12/23 01:27:59;;;;;;;14.82;9.45;;;6.00;99.90;;;;;;5028887;28;20030;-74
2021/12/23 01:30:26;;;;;;;14.52;9.77;;;6.00;99.90;;;;;;5027943;28;20075;-74
2021/12/23 01:32:54;;;;;;;12.68;9.60;;;6.00;99.90;;;;;;5020943;28;20111;-74
2021/12/23 01:35:21;;;;;;;13.88;9.27;;;6.00;99.90;;;;;;5029856;28;20393;-75
2021/12/23 01:37:47;;;;;;;13.43;8.95;;;6.00;99.90;;;;;;5016824;28;20041;-74
2021/12/23 01:40:14;;;;;;;13.88;9.45;;;6.00;99.90;;;;;;5023834;28;20033;-74
2021/12/23 01:42:40;;;;;;;14.38;9.27;;;6.10;99.90;;;;;;5022179;28;20033;-84
2021/12/23 01:45:14;;;;;;;13.15;8.75;;;6.10;99.90;;;;;;5027513;28;20025;-77
2021/12/23 01:47:41;;;;;;;11.60;8.48;;;6.10;99.90;;;;;;5020902;28;20021;-77
2021/12/23 01:50:09;;;;;;;16.42;8.60;;;6.00;99.90;;;;;;5029609;28;20025;-77
2021/12/23 01:52:34;;;;;;;13.77;8.90;;;6.00;99.90;;;;;;5019902;28;20025;-76
2021/12/23 01:55:01;;;;;;;10.60;8.95;;;6.10;99.90;;;;;;5029770;28;20052;-76
2021/12/23 01:57:30;;;;;;;13.48;9.07;;;6.10;99.90;;;;;;5026328;28;20026;-76
2021/12/23 01:59:57;;;;;;;11.32;8.98;;;6.10;99.90;;;;;;5022271;28;20131;-76
2021/12/23 02:02:23;;;;;;;10.20;8.07;;;6.10;99.90;;;;;;5022851;28;20118;-77
2021/12/23 02:04:49;;;;;;;15.98;9.25;;;6.10;99.90;;;;;;5030282;28;20163;-77
2021/12/23 02:07:15;;;;;;;11.90;8.32;;;6.10;99.90;;;;;;5015635;28;20034;-77
2021/12/23 02:09:41;;;;;;;11.57;8.25;;;6.10;99.90;;;;;;5029935;28;20027;-77
2021/12/23 02:12:07;;;;;;;12.02;7.47;;;6.10;99.90;;;;;;5023694;28;20021;-77
2021/12/23 02:14:33;;;;;;;15.13;8.95;;;6.10;99.90;;;;;;5023434;28;20022;-77
2021/12/23 02:16:58;;;;;;;13.02;8.50;;;6.10;99.90;;;;;;5022296;28;20080;-77
2021/12/23 02:19:24;;;;;;;15.15;9.10;;;6.20;99.90;;;;;;5028432;28;20033;-77
2021/12/23 02:21:50;;;;;;;16.45;9.15;;;6.10;99.90;;;;;;5024081;28;20502;-77
2021/12/23 02:24:17;;;;;;;13.57;8.98;;;6.20;99.90;;;;;;5022969;28;20021;-77
2021/12/23 02:26:43;;;;;;;13.57;8.73;;;6.20;99.90;;;;;;5019599;28;20050;-77
2021/12/23 02:29:09;;;;;;;13.52;8.93;;;6.20;99.90;;;;;;5024699;28;20084;-77
2021/12/23 02:31:35;;;;;;;12.63;8.65;;;6.20;99.90;;;;;;5020679;28;20491;-77
2021/12/23 02:34:02;;;;;;;14.45;8.75;;;6.20;99.90;;;;;;5024743;28;20028;-76
2021/12/23 02:36:30;;;;;;;11.73;8.45;;;6.20;99.90;;;;;;5020592;28;20042;-77
2021/12/23 02:38:57;;;;;;;17.38;8.98;;;6.20;99.90;;;;;;5024576;28;20026;-76
2021/12/23 02:41:23;;;;;;;14.85;8.95;;;6.20;99.90;;;;;;5021565;28;20117;-76
2021/12/23 02:43:48;;;;;;;13.15;9.13;;;6.20;99.90;;;;;;5017490;28;20033;-76
2021/12/23 02:46:18;;;;;;;10.57;8.25;;;6.20;99.90;;;;;;5015971;28;20120;-77
2021/12/23 02:48:44;;;;;;;13.07;8.73;;;6.30;99.90;;;;;;5028176;28;20025;-77
2021/12/23 02:51:13;;;;;;;9.95;8.32;;;6.20;99.90;;;;;;5024962;28;20022;-76
2021/12/23 02:53:40;;;;;;;12.43;8.63;;;6.20;99.90;;;;;;5018496;28;20037;-77
2021/12/23 02:56:07;;;;;;;14.20;8.55;;;6.20;99.90;;;;;;5023522;28;20032;-77
2021/12/23 02:58:34;;;;;;;10.25;8.00;;;6.20;99.90;;;;;;5023419;28;20048;-77
2021/12/23 03:01:04;;;;;;;10.65;7.72;;;6.30;99.90;;;;;;5023338;28;20393;-77
2021/12/23 03:03:29;;;;;;;11.40;8.60;;;6.30;99.90;;;;;;5017161;28;20030;-77
2021/12/23 03:05:58;;;;;;;13.30;8.55;;;6.30;99.90;;;;;;5032022;28;20473;-76
2021/12/23 03:08:51;;;;;;;16.20;8.68;;;6.30;99.90;;;;;;5027871;28;20119;-79
2021/12/23 03:11:20;;;;;;;10.68;8.45;;;6.30;99.90;;;;;;5014661;28;20034;-78
2021/12/23 03:13:46;;;;;;;13.07;8.77;;;6.30;99.90;;;;;;5026552;28;20100;-78
2021/12/23 03:16:13;;;;;;;11.20;8.48;;;6.30;99.90;;;;;;5021154;28;20045;-77
2021/12/23 03:18:40;;;;;;;10.75;8.05;;;6.30;99.90;;;;;;5032020;28;20034;-77
2021/12/23 03:21:06;;;;;;;11.32;8.25;;;6.30;99.90;;;;;;5016696;28;20025;-76
2021/12/23 03:23:33;;;;;;;12.15;9.38;;;6.30;99.90;;;;;;5023317;28;20017;-76
2021/12/23 03:26:00;;;;;;;11.88;8.63;;;6.30;99.90;;;;;;5022574;28;20029;-76
2021/12/23 03:28:26;;;;;;;12.45;9.00;;;6.30;99.90;;;;;;5024354;28;20565;-76
2021/12/23 03:30:52;;;;;;;12.13;9.10;;;6.20;99.90;;;;;;5022521;28;20084;-76
2021/12/23 03:33:18;;;;;;;13.18;9.10;;;6.20;99.90;;;;;;5026559;28;20057;-76
2021/12/23 03:35:44;;;;;;;14.75;9.55;;;6.20;99.90;;;;;;5030437;28;20889;-76
2021/12/23 03:38:11;;;;;;;12.32;8.98;;;6.20;99.90;;;;;;5025288;28;20037;-77
2021/12/23 03:40:37;;;;;;;14.88;9.40;;;6.20;99.90;;;;;;5024347;28;20025;-78
2021/12/23 03:43:03;;;;;;;12.43;9.30;;;6.20;99.90;;;;;;5022336;28;20076;-76
2021/12/23 03:45:29;;;;;;;12.45;9.23;;;6.20;99.90;;;;;;5021277;28;20030;-79
2021/12/23 03:47:55;;;;;;;13.10;9.23;;;6.20;99.90;;;;;;5023560;28;20026;-78
2021/12/23 03:50:23;;;;;;;12.27;9.13;;;6.20;99.90;;;;;;5027735;28;20543;-78
2021/12/23 03:52:49;;;;;;;11.73;9.02;;;6.20;99.90;;;;;;5030800;28;20033;-79
2021/12/23 03:55:16;;;;;;;10.38;8.10;;;6.10;99.90;;;;;;5031423;28;20033;-76
2021/12/23 03:57:42;;;;;;;13.80;9.18;;;6.20;99.90;;;;;;5042471;28;20099;-76
2021/12/23 04:00:12;;;;;;;12.15;9.02;;;6.20;99.90;;;;;;5025335;28;20044;-76
2021/12/23 04:02:38;;;;;;;13.23;8.70;;;6.20;99.90;;;;;;5028635;28;20029;-76
2021/12/23 04:05:09;;;;;;;12.82;9.05;;;6.20;99.90;;;;;;5031577;28;20053;-76
2021/12/23 04:07:36;;;;;;;15.05;9.70;;;6.20;99.90;;;;;;5030672;28;20109;-77
2021/12/23 04:10:03;;;;;;;12.27;9.48;;;6.10;99.90;;;;;;5021836;28;20028;-77
2021/12/23 04:12:29;;;;;;;14.48;9.77;;;6.10;99.90;;;;;;5029713;28;20100;-77
2021/12/23 04:14:55;;;;;;;13.75;10.50;;;6.10;99.90;;;;;;5030623;28;20124;-77
2021/12/23 04:17:20;;;;;;;12.00;9.45;;;6.10;99.90;;;;;;5029132;28;20045;-77
2021/12/23 04:19:47;;;;;;;13.25;10.52;;;6.10;99.90;;;;;;5030189;28;20088;-77
2021/12/23 04:22:13;;;;;;;13.45;9.95;;;6.10;99.90;;;;;;5020046;28;20459;-77
2021/12/23 04:24:39;;;;;;;15.60;9.70;;;6.20;99.90;;;;;;5032478;28;20033;-77
2021/12/23 04:27:05;;;;;;;12.68;9.82;;;6.20;99.90;;;;;;5024569;28;20495;-76
2021/12/23 04:29:32;;;;;;;13.20;9.55;;;6.10;99.90;;;;;;5025145;28;20036;-78
2021/12/23 04:31:59;;;;;;;13.50;10.10;;;6.10;99.90;;;;;;5023170;28;20056;-78
2021/12/23 04:34:24;;;;;;;13.45;9.95;;;6.00;99.90;;;;;;5032453;28;20037;-77
2021/12/23 04:36:50;;;;;;;15.13;10.48;;;6.00;99.90;;;;;;5025140;28;20033;-77
2021/12/23 04:39:16;;;;;;;15.20;10.15;;;6.00;99.90;;;;;;5026630;28;20078;-77
2021/12/23 04:41:41;;;;;;;13.65;10.07;;;6.00;99.90;;;;;;5023018;28;20034;-77
2021/12/23 04:44:07;;;;;;;13.07;10.38;;;6.00;99.90;;;;;;5022310;28;20063;-77
2021/12/23 04:46:33;;;;;;;12.00;9.95;;;6.00;99.90;;;;;;5024741;28;20029;-77
2021/12/23 04:48:59;;;;;;;14.10;10.35;;;6.00;99.90;;;;;;5031220;28;20088;-77
2021/12/23 04:51:25;;;;;;;15.90;10.43;;;5.90;99.90;;;;;;5022318;28;20116;-77
2021/12/23 04:53:51;;;;;;;13.65;10.05;;;5.90;99.90;;;;;;5030597;28;20020;-77
2021/12/23 04:56:19;;;;;;;13.65;10.70;;;5.90;99.90;;;;;;5024614;28;20125;-77
2021/12/23 04:58:45;;;;;;;14.05;10.75;;;5.90;99.90;;;;;;5024278;28;20503;-76
2021/12/23 05:01:19;;;;;;;14.82;10.18;;;5.90;99.90;;;;;;5024825;28;20476;-77
2021/12/23 05:03:47;;;;;;;14.00;9.85;;;5.90;99.90;;;;;;5029159;28;20068;-77
2021/12/23 05:06:16;;;;;;;11.13;9.90;;;5.90;99.90;;;;;;5025190;28;20225;-77
2021/12/23 05:08:41;;;;;;;13.57;10.35;;;5.90;99.90;;;;;;5027744;28;20025;-77
2021/12/23 05:11:07;;;;;;;13.60;9.98;;;5.80;99.90;;;;;;5024029;28;20113;-77
2021/12/23 05:13:33;;;;;;;14.95;9.68;;;5.80;99.90;;;;;;5028609;28;20036;-77
2021/12/23 05:15:59;;;;;;;15.48;9.90;;;5.80;99.90;;;;;;5026178;28;20054;-76
2021/12/23 05:18:24;;;;;;;17.23;10.25;;;5.80;99.90;;;;;;5028121;28;20029;-76
2021/12/23 05:20:51;;;;;;;13.40;9.63;;;5.80;99.90;;;;;;5025046;28;20029;-76
2021/12/23 05:23:17;;;;;;;13.23;9.00;;;5.80;99.90;;;;;;5025939;28;20017;-76
2021/12/23 05:25:43;;;;;;;13.00;9.60;;;5.80;99.90;;;;;;5027437;28;20040;-76
2021/12/23 05:28:09;;;;;;;15.73;10.07;;;5.80;99.90;;;;;;5020970;28;20037;-76
2021/12/23 05:30:35;;;;;;;12.82;10.10;;;5.80;99.90;;;;;;5026273;28;20029;-77
2021/12/23 05:33:01;;;;;;;16.17;10.07;;;5.80;99.90;;;;;;5018054;28;20030;-77
2021/12/23 05:35:26;;;;;;;13.93;9.73;;;5.80;99.90;;;;;;5028420;28;20520;-77
2021/12/23 05:37:52;;;;;;;14.40;9.50;;;5.80;99.90;;;;;;5020745;28;20104;-77
2021/12/23 05:40:21;;;;;;;15.38;9.82;;;5.80;99.90;;;;;;5030335;28;20094;-78
2021/12/23 05:42:47;;;;;;;24.80;15.20;;;5.90;99.90;;;;;;5022729;28;20026;-78
2021/12/23 05:45:14;;;;;;;26.73;18.00;;;5.90;99.90;;;;;;5029284;28;20373;-78
2021/12/23 05:47:40;;;;;;;22.25;15.80;;;5.90;99.90;;;;;;5019815;28;20468;-78
2021/12/23 05:50:07;;;;;;;17.73;11.60;;;5.90;99.90;;;;;;5034050;28;20110;-78
2021/12/23 05:52:34;;;;;;;11.90;9.77;;;5.90;99.90;;;;;;5024619;28;20047;-76
2021/12/23 05:55:02;;;;;;;17.63;10.13;;;5.90;99.90;;;;;;5035367;28;20563;-77
2021/12/23 05:57:46;;;;;;;13.00;10.02;;;5.90;99.90;;;;;;5043939;28;20138;-78
2021/12/23 06:00:16;;;;;;;15.27;11.07;;;5.90;99.90;;;;;;5028827;28;20034;-78
2021/12/23 06:02:42;;;;;;;11.90;9.70;;;5.90;99.90;;;;;;5018370;28;20507;-77
2021/12/23 06:05:08;;;;;;;13.90;10.00;;;5.90;99.90;;;;;;5029024;28;20072;-77
2021/12/23 06:07:34;;;;;;;14.10;9.73;;;6.00;99.90;;;;;;5022187;28;20029;-79
2021/12/23 06:10:00;;;;;;;12.82;9.68;;;6.10;99.90;;;;;;5030162;28;20498;-77
2021/12/23 06:12:26;;;;;;;12.52;9.65;;;6.10;99.90;;;;;;5020101;28;20025;-77
2021/12/23 06:14:52;;;;;;;13.45;9.77;;;6.10;99.90;;;;;;5028325;28;20107;-78
2021/12/23 06:17:18;;;;;;;14.57;9.90;;;6.10;99.90;;;;;;5022179;28;20041;-78
2021/12/23 06:19:44;;;;;;;14.00;9.85;;;6.10;99.90;;;;;;5031257;28;20024;-79
2021/12/23 06:22:12;;;;;;;13.48;10.82;;;6.10;99.90;;;;;;5019995;28;20096;-76
2021/12/23 06:24:39;;;;;;;13.48;9.88;;;6.00;99.90;;;;;;5014705;28;20088;-78
2021/12/23 06:27:05;;;;;;;12.60;9.85;;;6.00;99.90;;;;;;5029772;28;20030;-78
2021/12/23 06:29:31;;;;;;;17.70;11.32;;;6.00;99.90;;;;;;5028140;28;20084;-76
2021/12/23 06:31:56;;;;;;;15.73;11.95;;;6.00;99.90;;;;;;5023413;28;20449;-77
2021/12/23 06:34:22;;;;;;;17.88;12.27;;;6.00;99.90;;;;;;5026998;28;20037;-77
2021/12/23 06:36:47;;;;;;;17.40;12.52;;;6.00;99.90;;;;;;5018617;28;20084;-78
2021/12/23 06:39:14;;;;;;;18.00;11.82;;;6.00;99.90;;;;;;5016757;28;20026;-79
2021/12/23 06:41:40;;;;;;;14.25;11.18;;;6.10;99.90;;;;;;5015581;28;20400;-78
2021/12/23 06:44:06;;;;;;;17.70;12.25;;;6.10;99.90;;;;;;5028287;28;20195;-77
2021/12/23 06:46:31;;;;;;;15.63;10.77;;;6.10;99.90;;;;;;5023740;28;20360;-78
2021/12/23 06:48:57;;;;;;;16.73;10.93;;;6.10;99.90;;;;;;5025051;28;20104;-78
2021/12/23 06:51:25;;;;;;;17.25;12.30;;;6.10;99.90;;;;;;5022517;28;20028;-78
2021/12/23 06:53:51;;;;;;;15.88;11.48;;;6.20;99.90;;;;;;5018869;28;20013;-79
2021/12/23 06:56:18;;;;;;;15.60;12.00;;;6.20;99.90;;;;;;5021087;28;20401;-79
2021/12/23 06:58:48;;;;;;;14.68;11.77;;;6.20;99.90;;;;;;5026407;28;20014;-79
2021/12/23 07:01:17;;;;;;;15.40;11.68;;;6.20;99.90;;;;;;5021198;28;20029;-79
2021/12/23 07:04:04;;;;;;;17.17;11.10;;;6.20;99.90;;;;;;5018879;28;20041;-79
2021/12/23 07:06:31;;;;;;;15.60;10.30;;;6.20;99.90;;;;;;5016927;28;20522;-78
2021/12/23 07:08:58;;;;;;;12.57;10.20;;;6.30;99.90;;;;;;5025516;28;20025;-85
2021/12/23 07:11:23;;;;;;;14.25;11.43;;;6.30;99.90;;;;;;5021863;28;20425;-79
2021/12/23 07:13:49;;;;;;;16.55;10.65;;;6.30;99.90;;;;;;5018774;28;20056;-78
2021/12/23 07:16:15;;;;;;;15.55;11.00;;;6.30;99.90;;;;;;5018875;28;20049;-79
2021/12/23 07:18:42;;;;;;;15.73;10.80;;;6.40;99.90;;;;;;5027842;28;20049;-80
2021/12/23 07:21:08;;;;;;;17.95;10.55;;;6.40;99.90;;;;;;5023615;28;20026;-79
2021/12/23 07:23:34;;;;;;;14.27;10.90;;;6.40;99.90;;;;;;5019413;28;20112;-79
2021/12/23 07:25:59;;;;;;;12.75;10.70;;;6.40;99.90;;;;;;5022521;28;20033;-79
2021/12/23 07:28:25;;;;;;;13.10;10.70;;;6.40;99.90;;;;;;5033851;28;20113;-79
2021/12/23 07:30:51;;;;;;;17.95;10.60;;;6.40;99.90;;;;;;5014814;28;20040;-79
2021/12/23 07:33:17;;;;;;;18.25;10.88;;;6.50;99.90;;;;;;5018781;28;20026;-78
2021/12/23 07:35:42;;;;;;;13.85;10.48;;;6.60;99.90;;;;;;5014160;28;20030;-80
2021/12/23 07:38:08;;;;;;;17.90;10.75;;;6.50;99.90;;;;;;5020999;28;20105;-79
2021/12/23 07:40:34;;;;;;;13.25;10.40;;;6.60;99.90;;;;;;5026536;28;20400;-78
2021/12/23 07:43:20;;;;;;;22.73;10.52;;;6.60;99.90;;;;;;5016799;28;20025;-79
2021/12/23 07:45:47;;;;;;;16.13;11.07;;;6.70;99.90;;;;;;5025193;28;20117;-79
2021/12/23 07:48:13;;;;;;;15.32;10.95;;;6.80;99.90;;;;;;5018829;28;20030;-78
2021/12/23 07:50:41;;;;;;;12.55;9.68;;;6.90;99.90;;;;;;5013150;28;20192;-78
2021/12/23 07:53:07;;;;;;;15.48;10.95;;;7.00;99.90;;;;;;5021761;28;20053;-78
2021/12/23 07:55:33;;;;;;;13.95;11.38;;;7.10;99.90;;;;;;5027325;28;20053;-78
2021/12/23 07:57:59;;;;;;;14.70;9.88;;;7.10;99.90;;;;;;5017630;28;20041;-78
2021/12/23 08:00:29;;;;;;;15.45;10.30;;;7.10;99.90;;;;;;5041907;28;20426;-78
2021/12/23 08:02:54;;;;;;;15.75;11.02;;;7.10;99.90;;;;;;5018732;28;20033;-79
2021/12/23 08:05:20;;;;;;;13.90;10.60;;;7.20;99.90;;;;;;5014013;28;20022;-78
2021/12/23 08:07:46;;;;;;;16.08;10.30;;;7.20;99.90;;;;;;5022381;28;20535;-80
2021/12/23 08:10:13;;;;;;;14.00;9.05;;;7.20;99.90;;;;;;5025850;28;20037;-78
2021/12/23 08:12:39;;;;;;;13.10;10.13;;;7.30;99.90;;;;;;5024927;28;20033;-79
2021/12/23 08:15:05;;;;;;;18.13;10.15;;;7.20;99.90;;;;;;5012558;28;20034;-79
2021/12/23 08:17:31;;;;;;;12.68;9.30;;;7.30;99.90;;;;;;5020533;28;20108;-79
2021/12/23 08:19:57;;;;;;;14.02;9.65;;;7.40;99.90;;;;;;5018348;28;20552;-79
2021/12/23 08:22:22;;;;;;;15.15;9.98;;;7.50;99.90;;;;;;5029969;28;20435;-80
2021/12/23 08:24:48;;;;;;;13.30;10.02;;;7.70;99.90;;;;;;5036968;28;20500;-80
2021/12/23 08:27:14;;;;;;;18.35;11.70;;;7.80;99.90;;;;;;5031979;28;20059;-80
2021/12/23 08:29:39;;;;;;;20.00;12.00;;;7.90;99.90;;;;;;5031116;28;20109;-79
2021/12/23 08:32:06;;;;;;;22.73;14.60;;;7.90;99.90;;;;;;5021146;28;20492;-80
2021/12/23 08:34:34;;;;;;;21.63;14.88;;;8.00;99.90;;;;;;5017491;28;20033;-78
2021/12/23 08:37:01;;;;;;;23.08;15.20;;;8.10;99.90;;;;;;5020205;28;20045;-79
2021/12/23 08:39:26;;;;;;;20.17;14.55;;;8.10;99.90;;;;;;5038730;28;20124;-80
2021/12/23 08:41:52;;;;;;;24.58;14.73;;;8.20;99.90;;;;;;5020271;28;20105;-80
2021/12/23 08:44:18;;;;;;;17.88;11.82;;;8.20;99.90;;;;;;5027037;28;20025;-80
2021/12/23 08:46:43;;;;;;;16.23;11.23;;;8.30;99.90;;;;;;5028715;28;20030;-79
2021/12/23 08:49:09;;;;;;;17.60;11.25;;;8.30;99.90;;;;;;5027603;28;20548;-79
2021/12/23 08:51:37;;;;;;;18.88;10.73;;;8.40;99.90;;;;;;5025895;28;20033;-79
2021/12/23 08:54:03;;;;;;;18.67;12.63;;;8.50;99.90;;;;;;5027734;28;20024;-79
2021/12/23 08:56:29;;;;;;;17.90;11.43;;;8.50;99.90;;;;;;5026739;28;20042;-80
2021/12/23 08:58:55;;;;;;;21.42;11.95;;;8.50;99.90;;;;;;5028082;28;20013;-79
2021/12/23 09:01:22;;;;;;;19.60;11.88;;;8.50;99.90;;;;;;5023281;28;20061;-80
2021/12/23 09:03:47;;;;;;;16.52;11.10;;;8.60;99.90;;;;;;5025532;28;20543;-80
2021/12/23 09:06:13;;;;;;;27.58;12.93;;;8.70;99.90;;;;;;5022569;28;20360;-79
2021/12/23 09:08:39;;;;;;;21.70;11.38;;;8.80;99.90;;;;;;5032535;28;20031;-79
2021/12/23 09:11:05;;;;;;;18.08;10.30;;;8.90;99.90;;;;;;5047559;28;20021;-78
2021/12/23 09:13:31;;;;;;;16.58;10.50;;;8.80;99.90;;;;;;5024765;28;20561;-78
2021/12/23 09:15:57;;;;;;;22.05;11.13;;;8.80;99.90;;;;;;5025393;28;20576;-79
2021/12/23 09:18:23;;;;;;;18.92;11.50;;;8.80;99.90;;;;;;5027864;28;20129;-79
2021/12/23 09:20:50;;;;;;;16.08;9.98;;;8.90;99.90;;;;;;5028729;28;20109;-81
2021/12/23 09:23:16;;;;;;;17.55;10.98;;;9.00;99.90;;;;;;5025804;28;20068;-80
2021/12/23 09:25:45;;;;;;;17.90;11.52;;;9.20;99.90;;;;;;5027889;28;20026;-81
2021/12/23 09:28:50;;;;;;;14.20;9.85;;;9.20;99.90;;;;;;5023726;28;20022;-80
2021/12/23 09:34:08;;;;;;;11.82;8.68;;;9.30;99.90;;;;;;5029357;28;20078;-80
2021/12/23 09:36:34;;;;;;;18.13;11.52;;;9.30;99.90;;;;;;5027074;28;20041;-80
2021/12/23 09:39:00;;;;;;;15.77;10.25;;;9.30;99.90;;;;;;5026714;28;20063;-81
2021/12/23 09:41:27;;;;;;;14.90;8.70;;;9.30;99.90;;;;;;5025591;28;20036;-80
2021/12/23 09:43:56;;;;;;;13.73;9.88;;;9.40;99.90;;;;;;5025669;28;20049;-80
2021/12/23 09:46:22;;;;;;;15.60;10.45;;;9.40;99.90;;;;;;5024502;28;20033;-80
2021/12/23 09:48:48;;;;;;;17.70;10.40;;;9.40;99.90;;;;;;5024908;28;20144;-80
2021/12/23 09:51:19;;;;;;;13.02;10.45;;;9.50;99.90;;;;;;5023520;28;20033;-83
2021/12/23 09:53:55;;;;;;;20.73;11.05;;;9.70;99.90;;;;;;5021296;28;20172;-91
2021/12/23 09:56:21;;;;;;;19.70;11.77;;;9.80;99.90;;;;;;5020121;28;20124;-84
2021/12/23 09:58:47;;;;;;;17.80;11.82;;;9.50;99.90;;;;;;5018856;28;20104;-79
2021/12/23 10:01:13;;;;;;;15.25;10.98;;;9.20;99.90;;;;;;5019843;28;20172;-84
2021/12/23 10:03:39;;;;;;;17.35;11.07;;;9.00;99.90;;;;;;5026769;28;20037;-84
2021/12/23 10:06:06;;;;;;;13.02;9.30;;;9.00;99.90;;;;;;5024124;28;20034;-80
2021/12/23 10:08:31;;;;;;;14.35;9.82;;;8.90;99.90;;;;;;5019668;28;20022;-79
2021/12/23 10:11:08;;;;;;;12.20;9.80;;;8.90;99.90;;;;;;5017143;28;20029;-80
2021/12/23 10:30:44;;;;;;;16.73;10.52;;;8.70;99.90;;;;;;5013414;28;20136;-80
2021/12/23 10:38:32;;;;;;;16.48;11.57;;;8.20;99.90;;;;;;5016650;28;20412;-78
2021/12/23 10:41:03;;;;;;;19.33;12.13;;;8.30;99.90;;;;;;5014067;28;20029;-78
2021/12/23 10:43:36;;;;;;;18.27;11.07;;;8.50;99.90;;;;;;5020481;28;20082;-78
2021/12/23 10:46:06;;;;;;;;;;;8.60;99.90;;;;;;5021988;28;20029;-77
2021/12/23 10:48:42;;;;;;;15.40;10.20;;;8.70;99.90;;;;;;5016143;28;19905;-78
2021/12/23 10:51:15;;;;;;;15.93;10.70;;;8.80;99.90;;;;;;5012994;28;20107;-78
2021/12/23 10:59:11;;;;;;;14.75;10.48;;;8.60;99.90;;;;;;5022433;28;20571;-77
2021/12/23 11:02:00;;;;;;;15.80;10.52;;;8.70;99.90;;;;;;5016588;28;20022;-78
2021/12/23 11:04:25;;;;;;;12.57;9.07;;;8.80;99.90;;;;;;5042513;28;20064;-78
2021/12/23 11:07:14;;;;;;;17.70;10.43;;;9.10;99.90;;;;;;5017633;28;20056;-78
2021/12/23 11:10:13;;;;;;;13.60;10.50;;;9.50;99.90;;;;;;5026125;28;20028;-79
2021/12/23 11:37:49;;;;;;;21.75;14.65;;;9.20;99.90;;;;;;5019829;28;20585;-79
2021/12/23 11:45:32;;;;;;;14.85;11.57;;;8.80;99.90;;;;;;5026492;28;20655;-78
2021/12/23 11:47:58;;;;;;;14.73;10.30;;;8.80;99.90;;;;;;5024064;28;20025;-77
2021/12/23 11:50:33;;;;;;;18.23;11.20;;;9.00;99.90;;;;;;5014061;28;20022;-77
2021/12/23 11:53:00;;;;;;;20.00;13.25;;;9.40;99.90;;;;;;5024074;28;20025;-79
2021/12/23 11:55:26;;;;;;;17.77;12.18;;;9.50;99.90;;;;;;5018200;28;20017;-78
2021/12/23 11:57:54;;;;;;;16.65;12.38;;;9.30;99.90;;;;;;5038164;28;20049;-78
2021/12/23 12:00:32;;;;;;;15.90;11.70;;;9.20;99.90;;;;;;5014915;28;20025;-78
2021/12/23 12:03:00;;;;;;;17.90;11.82;;;9.10;99.90;;;;;;5021222;28;20033;-78
2021/12/23 12:05:26;;;;;;;19.92;12.27;;;9.10;99.90;;;;;;5018020;28;20030;-78
2021/12/23 12:08:24;;;;;;;19.38;13.32;;;9.10;99.90;;;;;;5021354;28;20188;-78
2021/12/23 12:10:50;;;;;;;16.30;12.82;;;8.80;99.90;;;;;;4983963;28;20531;-77
2021/12/23 12:13:17;;;;;;;13.80;11.50;;;8.50;99.90;;;;;;5021955;28;20043;-77
2021/12/23 12:15:50;;;;;;;19.85;14.00;;;8.50;99.90;;;;;;5018257;28;20103;-79
2021/12/23 12:18:23;;;;;;;16.40;13.15;;;8.60;99.90;;;;;;5020912;28;20030;-78
2021/12/23 12:21:00;;;;;;;22.90;15.25;;;8.50;99.90;;;;;;5019843;28;20116;-78
2021/12/23 12:23:33;;;;;;;19.98;15.65;;;8.40;99.90;;;;;;5021477;28;20022;-78
2021/12/23 12:26:09;;;;;;;23.20;16.10;;;8.20;99.90;;;;;;5018344;28;20385;-78
2021/12/23 12:28:38;;;;;;;32.83;22.20;;;8.20;99.90;;;;;;5021325;28;20113;-78
2021/12/23 12:31:12;;;;;;;25.05;16.40;;;8.40;99.90;;;;;;5019600;28;20422;-79
2021/12/23 12:34:02;;;;;;;20.50;16.52;;;8.50;99.90;;;;;;5023352;28;20025;-79
2021/12/23 12:36:29;;;;;;;27.30;18.08;;;8.50;99.90;;;;;;5017945;28;20057;-78
2021/12/23 12:39:15;;;;;;;27.67;16.65;;;8.50;99.90;;;;;;5020828;28;20478;-79
2021/12/23 12:41:41;;;;;;;31.83;17.42;;;8.30;99.90;;;;;;5019784;28;20503;-79
2021/12/23 12:44:26;;;;;;;22.08;15.48;;;8.30;99.90;;;;;;5019195;28;20026;-78
2021/12/23 12:47:20;;;;;;;21.30;15.98;;;8.30;99.90;;;;;;5016160;28;20498;-77
2021/12/23 12:49:49;;;;;;;21.30;16.33;;;8.50;99.90;;;;;;5024872;28;20061;-78
2021/12/23 12:52:29;;;;;;;21.50;15.25;;;8.70;99.90;;;;;;5018542;28;20029;-77
2021/12/23 12:55:07;;;;;;;25.77;16.92;;;8.80;99.90;;;;;;5028742;28;20034;-77
2021/12/23 12:57:55;;;;;;;26.23;18.52;;;8.80;99.90;;;;;;5019411;28;20048;-78
2021/12/23 13:00:21;;;;;;;25.35;17.00;;;8.90;99.90;;;;;;5027066;28;20033;-77
2021/12/23 13:02:55;;;;;;;21.15;16.08;;;8.90;99.90;;;;;;5019567;28;20142;-78
2021/12/23 13:05:31;;;;;;;20.05;15.35;;;8.80;99.90;;;;;;5012153;28;20030;-76
2021/12/23 13:07:58;;;;;;;24.38;16.33;;;8.70;99.90;;;;;;5018347;28;20030;-78
2021/12/23 13:10:31;;;;;;;26.48;18.42;;;8.50;99.90;;;;;;5012477;28;20071;-77
2021/12/23 13:13:01;;;;;;;33.00;18.52;;;8.40;99.90;;;;;;5017777;28;20042;-77
2021/12/23 13:15:35;;;;;;;21.80;17.40;;;8.20;99.90;;;;;;5013638;28;20076;-77
2021/12/23 13:18:01;;;;;;;24.30;17.17;;;8.20;99.90;;;;;;5021867;28;20076;-76
2021/12/23 13:20:32;;;;;;;31.77;18.77;;;8.10;99.90;;;;;;5025052;28;20033;-78
2021/12/23 13:23:04;;;;;;;26.90;18.15;;;8.20;99.90;;;;;;5021345;28;20030;-77
2021/12/23 13:25:30;;;;;;;26.35;17.73;;;8.10;99.90;;;;;;5025136;28;20029;-78
2021/12/23 13:27:58;;;;;;;27.40;19.42;;;8.10;99.90;;;;;;5018352;28;20080;-78
2021/12/23 13:30:24;;;;;;;27.80;19.65;;;8.10;99.90;;;;;;5013972;28;20013;-77
2021/12/23 13:33:10;;;;;;;25.35;18.02;;;8.10;99.90;;;;;;5021271;28;20028;-77
2021/12/23 13:35:36;;;;;;;29.45;18.52;;;8.10;99.90;;;;;;5025765;28;20487;-78
2021/12/23 13:38:02;;;;;;;26.92;20.52;;;8.00;99.90;;;;;;5021870;28;20033;-78
2021/12/23 13:40:31;;;;;;;25.65;17.50;;;8.00;99.90;;;;;;5026304;28;20057;-77
2021/12/23 13:42:57;;;;;;;27.17;18.42;;;7.90;99.90;;;;;;5017664;28;20109;-78
2021/12/23 13:45:23;;;;;;;26.90;18.60;;;7.80;99.90;;;;;;5013588;28;20044;-77
2021/12/23 13:47:54;;;;;;;27.55;18.40;;;7.80;99.90;;;;;;5018459;28;20499;-78
2021/12/23 13:50:21;;;;;;;28.38;17.77;;;7.80;99.90;;;;;;5013483;28;20512;-78
2021/12/23 13:52:50;;;;;;;31.63;19.20;;;7.80;99.90;;;;;;5018015;28;20021;-78
2021/12/23 13:55:27;;;;;;;26.02;18.65;;;7.80;99.90;;;;;;5020280;28;20109;-80